sensor_id;sensor_type;location;lat;lon;timestamp;pressure;altitude;pressure_sealevel;temperature;humidity
69737;BME280;64476;55.004;73.342;2024-03-08T00:00:06;101068.97;;;-15.75;48.65
69737;BME280;64476;55.004;73.342;2024-03-08T00:03:13;101058.88;;;-15.78;48.08
69737;BME280;64476;55.004;73.342;2024-03-08T00:06:22;100966.81;;;-16.31;48.07
69737;BME280;64476;55.004;73.342;2024-03-08T00:09:24;101042.03;;;-15.87;48.36
69737;BME280;64476;55.004;73.342;2024-03-08T00:12:25;101059.00;;;-15.69;47.46
69737;BME280;64476;55.004;73.342;2024-03-08T00:15:28;101043.00;;;-15.74;47.29
69737;BME280;64476;55.004;73.342;2024-03-08T00:18:30;101024.47;;;-15.78;47.70
69737;BME280;64476;55.004;73.342;2024-03-08T00:21:32;101047.34;;;-15.58;47.81
69737;BME280;64476;55.004;73.342;2024-03-08T00:24:35;101071.97;;;-15.32;47.56
69737;BME280;64476;55.004;73.342;2024-03-08T00:28:09;100978.28;;;-15.81;47.35
69737;BME280;64476;55.004;73.342;2024-03-08T00:31:22;101052.72;;;-15.24;47.05
69737;BME280;64476;55.004;73.342;2024-03-08T00:34:23;100966.63;;;-15.67;48.24
69737;BME280;64476;55.004;73.342;2024-03-08T00:37:58;101083.28;;;-14.92;47.77
69737;BME280;64476;55.004;73.342;2024-03-08T00:41:00;101059.75;;;-14.92;47.74
69737;BME280;64476;55.004;73.342;2024-03-08T00:44:02;101051.28;;;-14.99;47.22
69737;BME280;64476;55.004;73.342;2024-03-08T00:47:06;101060.59;;;-14.92;47.23
69737;BME280;64476;55.004;73.342;2024-03-08T00:50:08;101057.16;;;-14.97;47.07
69737;BME280;64476;55.004;73.342;2024-03-08T00:53:10;101068.16;;;-14.92;47.32
69737;BME280;64476;55.004;73.342;2024-03-08T00:56:50;101059.69;;;-14.99;47.60
69737;BME280;64476;55.004;73.342;2024-03-08T01:00:23;101071.47;;;-14.98;47.43
69737;BME280;64476;55.004;73.342;2024-03-08T01:03:57;101082.34;;;-15.03;47.87
69737;BME280;64476;55.004;73.342;2024-03-08T01:10:05;101059.59;;;-15.09;47.21
69737;BME280;64476;55.004;73.342;2024-03-08T01:13:10;101088.41;;;-14.86;47.50
69737;BME280;64476;55.004;73.342;2024-03-08T01:16:25;101095.16;;;-14.79;47.35
69737;BME280;64476;55.004;73.342;2024-03-08T01:19:27;101077.38;;;-14.96;47.45
69737;BME280;64476;55.004;73.342;2024-03-08T01:22:28;101101.03;;;-14.81;46.75
69737;BME280;64476;55.004;73.342;2024-03-08T01:25:31;101069.84;;;-14.92;46.59
69737;BME280;64476;55.004;73.342;2024-03-08T01:29:05;101106.16;;;-14.74;46.67
69737;BME280;64476;55.004;73.342;2024-03-08T01:32:38;101108.72;;;-14.67;46.40
69737;BME280;64476;55.004;73.342;2024-03-08T01:35:40;101044.53;;;-15.02;47.27
69737;BME280;64476;55.004;73.342;2024-03-08T01:38:45;101019.22;;;-15.14;46.83
69737;BME280;64476;55.004;73.342;2024-03-08T01:41:47;101104.56;;;-14.62;46.68
69737;BME280;64476;55.004;73.342;2024-03-08T01:44:49;101082.66;;;-14.66;47.09
69737;BME280;64476;55.004;73.342;2024-03-08T01:47:52;101102.94;;;-14.54;47.64
69737;BME280;64476;55.004;73.342;2024-03-08T01:50:58;100836.06;;;-16.19;47.48
69737;BME280;64476;55.004;73.342;2024-03-08T01:54:01;101074.13;;;-14.79;47.82
69737;BME280;64476;55.004;73.342;2024-03-08T01:57:04;101070.88;;;-14.67;48.41
69737;BME280;64476;55.004;73.342;2024-03-08T02:00:06;101014.16;;;-15.12;47.74
69737;BME280;64476;55.004;73.342;2024-03-08T02:03:11;101057.28;;;-14.85;47.69
69737;BME280;64476;55.004;73.342;2024-03-08T02:06:22;101109.72;;;-14.47;48.94
69737;BME280;64476;55.004;73.342;2024-03-08T02:09:24;101054.81;;;-14.77;48.88
69737;BME280;64476;55.004;73.342;2024-03-08T02:16:00;101059.03;;;-14.76;48.96
69737;BME280;64476;55.004;73.342;2024-03-08T02:19:02;101108.75;;;-14.63;48.23
69737;BME280;64476;55.004;73.342;2024-03-08T02:22:04;101096.06;;;-14.72;48.49
69737;BME280;64476;55.004;73.342;2024-03-08T02:25:08;101030.25;;;-15.00;48.15
69737;BME280;64476;55.004;73.342;2024-03-08T02:28:12;101065.00;;;-14.66;47.25
69737;BME280;64476;55.004;73.342;2024-03-08T02:31:46;101086.09;;;-14.54;47.40
69737;BME280;64476;55.004;73.342;2024-03-08T02:34:56;101124.97;;;-14.33;47.70
69737;BME280;64476;55.004;73.342;2024-03-08T02:38:02;101081.06;;;-14.55;47.55
69737;BME280;64476;55.004;73.342;2024-03-08T02:41:05;101119.91;;;-14.36;47.33
69737;BME280;64476;55.004;73.342;2024-03-08T02:44:11;101027.03;;;-14.85;47.38
69737;BME280;64476;55.004;73.342;2024-03-08T02:47:13;101048.94;;;-14.78;47.31
69737;BME280;64476;55.004;73.342;2024-03-08T02:50:15;101074.31;;;-14.58;47.38
69737;BME280;64476;55.004;73.342;2024-03-08T02:53:17;100984.63;;;-15.27;47.89
69737;BME280;64476;55.004;73.342;2024-03-08T02:56:21;101062.25;;;-14.94;48.00
69737;BME280;64476;55.004;73.342;2024-03-08T02:59:23;101026.88;;;-15.03;48.29
69737;BME280;64476;55.004;73.342;2024-03-08T03:02:25;101112.91;;;-14.68;48.17
69737;BME280;64476;55.004;73.342;2024-03-08T03:05:28;101106.16;;;-14.72;47.74
69737;BME280;64476;55.004;73.342;2024-03-08T03:08:30;101102.81;;;-14.71;48.53
69737;BME280;64476;55.004;73.342;2024-03-08T03:11:32;101125.66;;;-14.54;48.29
69737;BME280;64476;55.004;73.342;2024-03-08T03:14:35;101077.41;;;-14.91;47.88
69737;BME280;64476;55.004;73.342;2024-03-08T03:17:40;101052.75;;;-15.21;47.27
69737;BME280;64476;55.004;73.342;2024-03-08T03:20:42;101070.47;;;-15.12;47.99
69737;BME280;64476;55.004;73.342;2024-03-08T03:23:45;101123.81;;;-14.72;47.10
69737;BME280;64476;55.004;73.342;2024-03-08T03:26:47;101144.13;;;-14.57;47.30
69737;BME280;64476;55.004;73.342;2024-03-08T03:29:50;101130.66;;;-14.57;47.51
69737;BME280;64476;55.004;73.342;2024-03-08T03:33:25;101143.41;;;-14.45;47.16
69737;BME280;64476;55.004;73.342;2024-03-08T03:36:28;101068.22;;;-14.83;47.10
69737;BME280;64476;55.004;73.342;2024-03-08T03:39:31;101073.34;;;-14.74;47.13
69737;BME280;64476;55.004;73.342;2024-03-08T03:42:50;101123.34;;;-14.27;46.61
69737;BME280;64476;55.004;73.342;2024-03-08T03:45:55;101065.97;;;-14.48;46.51
69737;BME280;64476;55.004;73.342;2024-03-08T03:48:57;101142.03;;;-13.94;46.59
69737;BME280;64476;55.004;73.342;2024-03-08T03:51:59;101025.47;;;-14.66;46.92
69737;BME280;64476;55.004;73.342;2024-03-08T03:55:01;101121.81;;;-13.97;46.46
69737;BME280;64476;55.004;73.342;2024-03-08T03:58:09;101101.50;;;-14.12;46.11
69737;BME280;64476;55.004;73.342;2024-03-08T04:01:22;101129.44;;;-13.83;46.04
69737;BME280;64476;55.004;73.342;2024-03-08T04:04:24;101149.69;;;-13.76;45.80
69737;BME280;64476;55.004;73.342;2024-03-08T04:07:26;101120.13;;;-13.90;45.64
69737;BME280;64476;55.004;73.342;2024-03-08T04:10:28;101124.34;;;-13.91;45.71
69737;BME280;64476;55.004;73.342;2024-03-08T04:14:01;101104.94;;;-14.00;46.36
69737;BME280;64476;55.004;73.342;2024-03-08T04:17:03;101110.88;;;-13.87;45.39
69737;BME280;64476;55.004;73.342;2024-03-08T04:20:05;101111.72;;;-13.94;45.69
69737;BME280;64476;55.004;73.342;2024-03-08T04:23:11;101076.19;;;-14.23;45.63
69737;BME280;64476;55.004;73.342;2024-03-08T04:26:22;101164.03;;;-13.73;44.95
69737;BME280;64476;55.004;73.342;2024-03-08T04:29:24;101104.81;;;-14.23;45.93
69737;BME280;64476;55.004;73.342;2024-03-08T04:32:26;101089.56;;;-14.41;45.59
69737;BME280;64476;55.004;73.342;2024-03-08T04:35:27;101065.94;;;-14.52;45.70
69737;BME280;64476;55.004;73.342;2024-03-08T04:39:01;101175.72;;;-13.92;45.87
69737;BME280;64476;55.004;73.342;2024-03-08T04:42:35;101176.56;;;-13.91;45.56
69737;BME280;64476;55.004;73.342;2024-03-08T04:45:42;101171.50;;;-13.91;45.85
69737;BME280;64476;55.004;73.342;2024-03-08T04:48:45;101082.81;;;-14.43;45.86
69737;BME280;64476;55.004;73.342;2024-03-08T04:51:47;101170.78;;;-13.74;45.43
69737;BME280;64476;55.004;73.342;2024-03-08T04:54:48;101135.31;;;-13.87;45.53
69737;BME280;64476;55.004;73.342;2024-03-08T04:57:52;101112.56;;;-13.92;45.67
69737;BME280;64476;55.004;73.342;2024-03-08T05:00:54;101120.16;;;-13.89;46.15
69737;BME280;64476;55.004;73.342;2024-03-08T05:03:57;101045.88;;;-14.29;45.80
69737;BME280;64476;55.004;73.342;2024-03-08T05:07:30;101180.19;;;-13.39;46.42
69737;BME280;64476;55.004;73.342;2024-03-08T05:10:32;101145.63;;;-13.46;46.48
69737;BME280;64476;55.004;73.342;2024-03-08T05:13:34;101176.06;;;-13.21;46.17
69737;BME280;64476;55.004;73.342;2024-03-08T05:16:35;101153.25;;;-13.38;46.47
69737;BME280;64476;55.004;73.342;2024-03-08T05:19:37;101161.75;;;-13.24;46.52
69737;BME280;64476;55.004;73.342;2024-03-08T05:22:39;101181.19;;;-12.98;46.17
69737;BME280;64476;55.004;73.342;2024-03-08T05:29:17;101140.75;;;-12.79;46.72
69737;BME280;64476;55.004;73.342;2024-03-08T05:35:58;101079.16;;;-12.61;46.77
69737;BME280;64476;55.004;73.342;2024-03-08T05:39:00;101133.06;;;-12.07;46.48
69737;BME280;64476;55.004;73.342;2024-03-08T05:42:04;101046.97;;;-12.22;46.77
69737;BME280;64476;55.004;73.342;2024-03-08T05:45:06;101097.44;;;-11.59;46.05
69737;BME280;64476;55.004;73.342;2024-03-08T05:48:08;101149.63;;;-11.05;45.75
69737;BME280;64476;55.004;73.342;2024-03-08T05:51:09;101107.38;;;-11.15;46.40
69737;BME280;64476;55.004;73.342;2024-03-08T05:54:12;101133.47;;;-10.94;45.89
69737;BME280;64476;55.004;73.342;2024-03-08T05:57:14;101117.44;;;-10.99;45.70
69737;BME280;64476;55.004;73.342;2024-03-08T06:00:16;101111.56;;;-11.09;45.60
69737;BME280;64476;55.004;73.342;2024-03-08T06:03:18;101082.03;;;-11.21;46.00
69737;BME280;64476;55.004;73.342;2024-03-08T06:06:23;101098.84;;;-11.01;45.95
69737;BME280;64476;55.004;73.342;2024-03-08T06:09:26;101125.78;;;-10.81;46.17
69737;BME280;64476;55.004;73.342;2024-03-08T06:12:28;101151.00;;;-10.58;46.23
69737;BME280;64476;55.004;73.342;2024-03-08T06:15:33;101152.50;;;-10.34;46.02
69737;BME280;64476;55.004;73.342;2024-03-08T06:18:36;101163.28;;;-10.09;45.99
69737;BME280;64476;55.004;73.342;2024-03-08T06:21:39;101132.72;;;-10.01;45.87
69737;BME280;64476;55.004;73.342;2024-03-08T06:24:40;101134.53;;;-10.14;45.66
69737;BME280;64476;55.004;73.342;2024-03-08T06:27:43;101133.69;;;-10.11;45.29
69737;BME280;64476;55.004;73.342;2024-03-08T06:30:47;101085.03;;;-10.67;45.54
69737;BME280;64476;55.004;73.342;2024-03-08T06:33:49;101161.00;;;-10.36;45.28
69737;BME280;64476;55.004;73.342;2024-03-08T06:36:54;101120.41;;;-10.42;45.47
69737;BME280;64476;55.004;73.342;2024-03-08T06:40:02;101120.31;;;-10.32;45.93
69737;BME280;64476;55.004;73.342;2024-03-08T06:43:08;101142.25;;;-10.26;45.49
69737;BME280;64476;55.004;73.342;2024-03-08T06:46:21;101094.97;;;-10.39;45.38
69737;BME280;64476;55.004;73.342;2024-03-08T06:49:23;101080.56;;;-10.39;45.33
69737;BME280;64476;55.004;73.342;2024-03-08T06:52:25;101124.19;;;-9.97;45.23
69737;BME280;64476;55.004;73.342;2024-03-08T06:55:27;101114.03;;;-9.95;45.22
69737;BME280;64476;55.004;73.342;2024-03-08T06:58:29;101113.09;;;-9.91;44.91
69737;BME280;64476;55.004;73.342;2024-03-08T07:01:32;101126.50;;;-9.77;45.23
69737;BME280;64476;55.004;73.342;2024-03-08T07:04:56;101089.25;;;-9.81;45.45
69737;BME280;64476;55.004;73.342;2024-03-08T07:07:57;101154.50;;;-9.07;44.49
69737;BME280;64476;55.004;73.342;2024-03-08T07:10:59;101123.94;;;-9.07;44.56
69737;BME280;64476;55.004;73.342;2024-03-08T07:14:01;101121.91;;;-8.84;44.54
69737;BME280;64476;55.004;73.342;2024-03-08T07:17:07;101101.44;;;-8.79;43.91
69737;BME280;64476;55.004;73.342;2024-03-08T07:20:13;101097.19;;;-8.77;44.41
69737;BME280;64476;55.004;73.342;2024-03-08T07:23:16;101131.22;;;-8.29;44.53
69737;BME280;64476;55.004;73.342;2024-03-08T07:26:38;101115.03;;;-8.26;43.53
69737;BME280;64476;55.004;73.342;2024-03-08T07:29:40;101027.53;;;-8.76;42.92
69737;BME280;64476;55.004;73.342;2024-03-08T07:32:43;101102.66;;;-8.48;43.31
69737;BME280;64476;55.004;73.342;2024-03-08T07:35:48;101069.91;;;-8.71;43.52
69737;BME280;64476;55.004;73.342;2024-03-08T07:38:51;101128.44;;;-8.15;43.60
69737;BME280;64476;55.004;73.342;2024-03-08T07:41:53;101127.88;;;-8.32;43.35
69737;BME280;64476;55.004;73.342;2024-03-08T07:44:55;101127.97;;;-8.37;43.84
69737;BME280;64476;55.004;73.342;2024-03-08T07:47:57;101105.56;;;-8.71;43.37
69737;BME280;64476;55.004;73.342;2024-03-08T07:51:00;101098.84;;;-8.75;43.54
69737;BME280;64476;55.004;73.342;2024-03-08T07:54:01;101107.16;;;-8.64;43.16
69737;BME280;64476;55.004;73.342;2024-03-08T07:57:05;101109.50;;;-8.51;43.95
69737;BME280;64476;55.004;73.342;2024-03-08T08:00:09;101079.66;;;-8.45;43.41
69737;BME280;64476;55.004;73.342;2024-03-08T08:03:12;101132.28;;;-7.93;43.32
69737;BME280;64476;55.004;73.342;2024-03-08T08:06:21;101085.38;;;-7.85;42.94
69737;BME280;64476;55.004;73.342;2024-03-08T08:09:23;101103.78;;;-7.70;43.09
69737;BME280;64476;55.004;73.342;2024-03-08T08:16:04;101096.25;;;-7.34;42.96
69737;BME280;64476;55.004;73.342;2024-03-08T08:19:12;101052.88;;;-7.37;42.72
69737;BME280;64476;55.004;73.342;2024-03-08T08:22:14;101113.06;;;-6.86;42.85
69737;BME280;64476;55.004;73.342;2024-03-08T08:25:16;101003.59;;;-7.41;42.73
69737;BME280;64476;55.004;73.342;2024-03-08T08:28:25;100950.06;;;-7.81;41.65
69737;BME280;64476;55.004;73.342;2024-03-08T08:31:27;101082.34;;;-6.85;42.17
69737;BME280;64476;55.004;73.342;2024-03-08T08:34:29;101082.16;;;-6.77;42.08
69737;BME280;64476;55.004;73.342;2024-03-08T08:37:32;101104.44;;;-6.47;42.17
69737;BME280;64476;55.004;73.342;2024-03-08T08:40:35;101094.25;;;-6.48;41.81
69737;BME280;64476;55.004;73.342;2024-03-08T08:43:43;101075.44;;;-6.46;41.70
69737;BME280;64476;55.004;73.342;2024-03-08T08:46:47;100996.47;;;-6.90;41.56
69737;BME280;64476;55.004;73.342;2024-03-08T08:49:50;101065.16;;;-6.44;41.93
69737;BME280;64476;55.004;73.342;2024-03-08T08:52:56;101095.88;;;-6.11;41.32
69737;BME280;64476;55.004;73.342;2024-03-08T08:59:31;101126.56;;;-5.79;41.26
69737;BME280;64476;55.004;73.342;2024-03-08T09:03:12;101090.53;;;-6.02;41.01
69737;BME280;64476;55.004;73.342;2024-03-08T09:06:45;101116.53;;;-5.86;41.23
69737;BME280;64476;55.004;73.342;2024-03-08T09:09:47;101107.34;;;-5.93;40.82
69737;BME280;64476;55.004;73.342;2024-03-08T09:12:56;101110.59;;;-5.88;40.27
69737;BME280;64476;55.004;73.342;2024-03-08T09:15:57;101105.19;;;-6.09;40.70
69737;BME280;64476;55.004;73.342;2024-03-08T09:19:06;100998.91;;;-6.86;41.06
69737;BME280;64476;55.004;73.342;2024-03-08T09:22:08;101069.28;;;-6.38;40.95
69737;BME280;64476;55.004;73.342;2024-03-08T09:25:11;100993.09;;;-6.93;41.01
69737;BME280;64476;55.004;73.342;2024-03-08T09:28:13;101145.19;;;-6.06;40.68
69737;BME280;64476;55.004;73.342;2024-03-08T09:31:15;101086.44;;;-6.44;40.10
69737;BME280;64476;55.004;73.342;2024-03-08T09:34:17;101098.13;;;-6.32;41.07
69737;BME280;64476;55.004;73.342;2024-03-08T09:37:20;101096.13;;;-6.21;40.57
69737;BME280;64476;55.004;73.342;2024-03-08T09:40:23;101127.59;;;-5.86;40.32
69737;BME280;64476;55.004;73.342;2024-03-08T09:43:28;101096.47;;;-6.02;40.66
69737;BME280;64476;55.004;73.342;2024-03-08T09:46:30;101069.31;;;-6.07;40.11
69737;BME280;64476;55.004;73.342;2024-03-08T09:49:31;101045.38;;;-6.37;40.33
69737;BME280;64476;55.004;73.342;2024-03-08T09:52:34;101036.47;;;-6.55;40.32
69737;BME280;64476;55.004;73.342;2024-03-08T09:55:37;100989.75;;;-6.95;40.57
69737;BME280;64476;55.004;73.342;2024-03-08T09:58:39;101052.88;;;-6.64;40.56
69737;BME280;64476;55.004;73.342;2024-03-08T10:05:36;101126.13;;;-6.61;41.04
69737;BME280;64476;55.004;73.342;2024-03-08T10:08:39;100953.59;;;-7.88;41.72
69737;BME280;64476;55.004;73.342;2024-03-08T10:11:41;101108.84;;;-6.89;42.22
69737;BME280;64476;55.004;73.342;2024-03-08T10:18:16;101105.09;;;-6.74;41.67
69737;BME280;64476;55.004;73.342;2024-03-08T10:21:50;101072.06;;;-6.82;41.32
69737;BME280;64476;55.004;73.342;2024-03-08T10:24:55;101100.38;;;-6.54;41.13
69737;BME280;64476;55.004;73.342;2024-03-08T10:27:57;101002.69;;;-7.01;41.08
69737;BME280;64476;55.004;73.342;2024-03-08T10:30:59;101052.06;;;-6.66;41.10
69737;BME280;64476;55.004;73.342;2024-03-08T10:34:02;101070.25;;;-6.43;40.87
69737;BME280;64476;55.004;73.342;2024-03-08T10:37:04;100958.50;;;-7.04;41.02
69737;BME280;64476;55.004;73.342;2024-03-08T10:47:26;101073.78;;;-6.47;41.18
69737;BME280;64476;55.004;73.342;2024-03-08T10:50:32;101059.34;;;-6.51;40.46
69737;BME280;64476;55.004;73.342;2024-03-08T10:53:36;101009.00;;;-6.81;40.42
69737;BME280;64476;55.004;73.342;2024-03-08T10:56:40;101111.53;;;-6.24;40.75
69737;BME280;64476;55.004;73.342;2024-03-08T10:59:42;101067.59;;;-6.74;40.56
69737;BME280;64476;55.004;73.342;2024-03-08T11:02:45;101099.94;;;-6.71;41.09
69737;BME280;64476;55.004;73.342;2024-03-08T11:05:47;101087.81;;;-7.00;40.86
69737;BME280;64476;55.004;73.342;2024-03-08T11:08:50;101105.75;;;-7.02;41.06
69737;BME280;64476;55.004;73.342;2024-03-08T11:11:52;101139.56;;;-6.90;40.82
69737;BME280;64476;55.004;73.342;2024-03-08T11:14:54;101075.81;;;-7.34;40.50
69737;BME280;64476;55.004;73.342;2024-03-08T11:17:59;101130.66;;;-7.13;41.24
69737;BME280;64476;55.004;73.342;2024-03-08T11:21:05;101133.31;;;-7.18;41.32
69737;BME280;64476;55.004;73.342;2024-03-08T11:24:45;101130.88;;;-7.22;41.22
69737;BME280;64476;55.004;73.342;2024-03-08T11:28:15;101138.88;;;-7.37;41.19
69737;BME280;64476;55.004;73.342;2024-03-08T11:31:22;101134.59;;;-7.37;41.52
69737;BME280;64476;55.004;73.342;2024-03-08T11:34:25;101079.44;;;-7.88;41.93
69737;BME280;64476;55.004;73.342;2024-03-08T11:37:28;101017.41;;;-8.33;41.43
69737;BME280;64476;55.004;73.342;2024-03-08T11:40:31;101102.41;;;-7.88;41.86
69737;BME280;64476;55.004;73.342;2024-03-08T11:43:34;100995.16;;;-8.70;41.42
69737;BME280;64476;55.004;73.342;2024-03-08T11:46:36;101005.75;;;-8.46;41.61
69737;BME280;64476;55.004;73.342;2024-03-08T11:49:40;101069.78;;;-8.17;41.83
69737;BME280;64476;55.004;73.342;2024-03-08T11:56:39;100999.81;;;-8.95;42.26
69737;BME280;64476;55.004;73.342;2024-03-08T12:03:26;101079.56;;;-8.91;43.01
69737;BME280;64476;55.004;73.342;2024-03-08T12:06:37;101132.00;;;-8.79;43.10
69737;BME280;64476;55.004;73.342;2024-03-08T12:10:21;101049.88;;;-9.52;43.35
69737;BME280;64476;55.004;73.342;2024-03-08T12:13:55;101105.81;;;-9.49;44.00
69737;BME280;64476;55.004;73.342;2024-03-08T12:17:29;101125.63;;;-9.74;44.28
69737;BME280;64476;55.004;73.342;2024-03-08T12:21:08;101150.34;;;-9.87;44.60
69737;BME280;64476;55.004;73.342;2024-03-08T12:25:03;101042.00;;;-10.82;45.19
69737;BME280;64476;55.004;73.342;2024-03-08T12:28:10;101153.47;;;-10.48;45.52
69737;BME280;64476;55.004;73.342;2024-03-08T12:31:18;101116.44;;;-10.78;45.53
69737;BME280;64476;55.004;73.342;2024-03-08T12:34:40;101113.13;;;-10.87;45.97
69737;BME280;64476;55.004;73.342;2024-03-08T12:37:41;101143.50;;;-10.77;45.96
69737;BME280;64476;55.004;73.342;2024-03-08T12:40:43;101024.81;;;-11.65;46.37
69737;BME280;64476;55.004;73.342;2024-03-08T12:43:45;100983.50;;;-11.88;46.22
69737;BME280;64476;55.004;73.342;2024-03-08T12:46:54;100920.34;;;-12.30;46.86
69737;BME280;64476;55.004;73.342;2024-03-08T12:49:56;101106.59;;;-11.26;46.45
69737;BME280;64476;55.004;73.342;2024-03-08T12:52:58;101086.38;;;-11.41;46.59
69737;BME280;64476;55.004;73.342;2024-03-08T12:56:00;101083.88;;;-11.43;47.08
69737;BME280;64476;55.004;73.342;2024-03-08T12:59:07;101118.44;;;-11.25;46.62
69737;BME280;64476;55.004;73.342;2024-03-08T13:02:09;101079.66;;;-11.48;47.37
69737;BME280;64476;55.004;73.342;2024-03-08T13:05:29;101119.25;;;-11.23;46.90
69737;BME280;64476;55.004;73.342;2024-03-08T13:08:31;101162.25;;;-10.97;46.98
69737;BME280;64476;55.004;73.342;2024-03-08T13:11:39;101039.19;;;-11.71;46.96
69737;BME280;64476;55.004;73.342;2024-03-08T13:14:41;101049.34;;;-11.73;46.86
69737;BME280;64476;55.004;73.342;2024-03-08T13:17:43;101067.91;;;-11.68;47.27
69737;BME280;64476;55.004;73.342;2024-03-08T13:20:46;101019.88;;;-11.97;47.09
69737;BME280;64476;55.004;73.342;2024-03-08T13:23:50;101159.06;;;-11.33;47.36
69737;BME280;64476;55.004;73.342;2024-03-08T13:26:56;101166.75;;;-11.51;47.81
69737;BME280;64476;55.004;73.342;2024-03-08T13:29:59;101127.09;;;-11.81;47.63
69737;BME280;64476;55.004;73.342;2024-03-08T13:33:01;101035.25;;;-12.46;48.27
69737;BME280;64476;55.004;73.342;2024-03-08T13:36:09;101126.28;;;-11.86;48.23
69737;BME280;64476;55.004;73.342;2024-03-08T13:39:42;101100.16;;;-12.10;47.84
69737;BME280;64476;55.004;73.342;2024-03-08T13:43:25;101158.31;;;-11.62;48.07
69737;BME280;64476;55.004;73.342;2024-03-08T13:46:29;101079.03;;;-12.09;48.33
69737;BME280;64476;55.004;73.342;2024-03-08T13:49:32;101153.22;;;-11.59;48.13
69737;BME280;64476;55.004;73.342;2024-03-08T13:52:34;101122.91;;;-11.84;48.02
69737;BME280;64476;55.004;73.342;2024-03-08T13:55:36;100920.59;;;-13.14;48.07
69737;BME280;64476;55.004;73.342;2024-03-08T13:58:38;101165.97;;;-11.74;48.38
69737;BME280;64476;55.004;73.342;2024-03-08T14:01:42;101078.28;;;-12.47;48.69
69737;BME280;64476;55.004;73.342;2024-03-08T14:04:45;101134.81;;;-12.27;49.14
69737;BME280;64476;55.004;73.342;2024-03-08T14:07:55;101150.84;;;-12.27;49.19
69737;BME280;64476;55.004;73.342;2024-03-08T14:10:57;101112.06;;;-12.62;49.15
69737;BME280;64476;55.004;73.342;2024-03-08T14:13:59;101128.94;;;-12.60;49.05
69737;BME280;64476;55.004;73.342;2024-03-08T14:17:02;101071.56;;;-13.05;49.46
69737;BME280;64476;55.004;73.342;2024-03-08T14:20:04;101106.13;;;-12.84;49.68
69737;BME280;64476;55.004;73.342;2024-03-08T14:23:06;101098.53;;;-13.07;49.86
69737;BME280;64476;55.004;73.342;2024-03-08T14:26:09;101079.97;;;-13.18;49.65
69737;BME280;64476;55.004;73.342;2024-03-08T14:29:14;101144.09;;;-12.90;50.03
69737;BME280;64476;55.004;73.342;2024-03-08T14:32:16;101107.78;;;-13.14;50.05
69737;BME280;64476;55.004;73.342;2024-03-08T14:35:21;101068.09;;;-13.44;50.06
69737;BME280;64476;55.004;73.342;2024-03-08T14:38:26;101034.28;;;-13.77;50.50
69737;BME280;64476;55.004;73.342;2024-03-08T14:41:28;101136.41;;;-13.29;50.43
69737;BME280;64476;55.004;73.342;2024-03-08T14:44:31;101086.63;;;-13.50;49.81
69737;BME280;64476;55.004;73.342;2024-03-08T14:47:33;101112.75;;;-13.43;50.00
69737;BME280;64476;55.004;73.342;2024-03-08T14:50:35;101140.66;;;-13.28;50.50
69737;BME280;64476;55.004;73.342;2024-03-08T14:53:38;101156.66;;;-13.22;50.40
69737;BME280;64476;55.004;73.342;2024-03-08T14:56:41;101139.78;;;-13.25;50.41
69737;BME280;64476;55.004;73.342;2024-03-08T14:59:44;101125.41;;;-13.43;50.13
69737;BME280;64476;55.004;73.342;2024-03-08T15:02:59;101013.06;;;-14.20;50.72
69737;BME280;64476;55.004;73.342;2024-03-08T15:06:01;101047.66;;;-14.05;50.32
69737;BME280;64476;55.004;73.342;2024-03-08T15:09:05;101078.03;;;-13.93;50.82
69737;BME280;64476;55.004;73.342;2024-03-08T15:12:13;101047.66;;;-14.08;50.87
69737;BME280;64476;55.004;73.342;2024-03-08T15:15:17;100993.63;;;-14.49;51.08
69737;BME280;64476;55.004;73.342;2024-03-08T15:18:22;101022.25;;;-14.45;50.37
69737;BME280;64476;55.004;73.342;2024-03-08T15:21:27;101098.19;;;-14.04;50.93
69737;BME280;64476;55.004;73.342;2024-03-08T15:24:29;101096.47;;;-14.09;50.81
69737;BME280;64476;55.004;73.342;2024-03-08T15:27:30;101108.31;;;-14.01;51.16
69737;BME280;64476;55.004;73.342;2024-03-08T15:30:33;101155.63;;;-13.70;51.13
69737;BME280;64476;55.004;73.342;2024-03-08T15:33:39;101120.97;;;-13.93;51.04
69737;BME280;64476;55.004;73.342;2024-03-08T15:37:13;101152.19;;;-13.85;51.10
69737;BME280;64476;55.004;73.342;2024-03-08T15:41:19;101133.59;;;-13.91;51.13
69737;BME280;64476;55.004;73.342;2024-03-08T15:47:56;101089.56;;;-14.41;51.25
69737;BME280;64476;55.004;73.342;2024-03-08T15:51:02;101053.28;;;-14.58;51.50
69737;BME280;64476;55.004;73.342;2024-03-08T15:54:06;101113.22;;;-14.30;51.39
69737;BME280;64476;55.004;73.342;2024-03-08T15:57:09;101100.41;;;-14.54;51.88
69737;BME280;64476;55.004;73.342;2024-03-08T16:00:17;101059.13;;;-14.67;51.24
69737;BME280;64476;55.004;73.342;2024-03-08T16:03:28;101121.56;;;-14.37;51.53
69737;BME280;64476;55.004;73.342;2024-03-08T16:06:31;100966.16;;;-15.29;51.58
69737;BME280;64476;55.004;73.342;2024-03-08T16:09:33;101107.19;;;-14.49;50.95
69737;BME280;64476;55.004;73.342;2024-03-08T16:12:36;101050.59;;;-14.80;51.08
69737;BME280;64476;55.004;73.342;2024-03-08T16:15:44;101119.84;;;-14.44;51.92
69737;BME280;64476;55.004;73.342;2024-03-08T16:18:47;101079.34;;;-14.58;52.13
69737;BME280;64476;55.004;73.342;2024-03-08T16:21:49;101046.38;;;-14.82;51.89
69737;BME280;64476;55.004;73.342;2024-03-08T16:24:51;101108.16;;;-14.28;51.76
69737;BME280;64476;55.004;73.342;2024-03-08T16:28:27;101112.38;;;-14.27;51.44
69737;BME280;64476;55.004;73.342;2024-03-08T16:31:42;101059.19;;;-14.53;51.12
69737;BME280;64476;55.004;73.342;2024-03-08T16:34:46;101031.31;;;-14.68;50.91
69737;BME280;64476;55.004;73.342;2024-03-08T16:37:55;101094.69;;;-14.29;51.56
69737;BME280;64476;55.004;73.342;2024-03-08T16:41:29;101050.81;;;-14.52;51.44